Time,TemperatureF,DewpointF,PressureIn,WindDirection,WindDirectionDegrees,WindSpeedMPH,WindSpeedGustMPH,Humidity,HourlyPrecipIn,Conditions,Clouds,dailyrainin,SoftwareType,DateUTC
2013-02-14 00:01:00,49.3,20.0,29.75,North,359,0.0,-999.0,32,-99.99,,,0.00,weatherlink.com 1.10,2013-02-14 07:01:00,
2013-02-14 00:16:00,48.7,21.0,29.75,North,359,0.0,-999.0,33,-99.99,,,0.00,weatherlink.com 1.10,2013-02-14 07:16:00,
2013-02-14 00:31:00,48.2,20.0,29.76,North,359,0.0,-999.0,33,-99.99,,,0.00,weatherlink.com 1.10,2013-02-14 07:31:00,
2013-02-14 00:46:00,48.4,25.0,29.75,North,359,0.0,-999.0,40,-99.99,,,0.00,weatherlink.com 1.10,2013-02-14 07:46:00,
2013-02-14 01:01:00,48.4,22.0,29.75,North,359,0.0,-999.0,36,-99.99,,,0.00,weatherlink.com 1.10,2013-02-14 08:01:00,
2013-02-14 01:16:00,48.2,21.0,29.75,North,359,0.0,-999.0,34,-99.99,,,0.00,weatherlink.com 1.10,2013-02-14 08:16:00,
2013-02-14 01:31:00,48.2,20.0,29.75,North,359,0.0,-999.0,33,-99.99,,,0.00,weatherlink.com 1.10,2013-02-14 08:31:00,
2013-02-14 01:46:00,48.5,20.0,29.76,North,359,0.0,-999.0,33,-99.99,,,0.00,weatherlink.com 1.10,2013-02-14 08:46:00,
2013-02-14 02:01:00,49.6,21.0,29.76,North,359,0.0,-999.0,32,-99.99,,,0.00,weatherlink.com 1.10,2013-02-14 09:01:00,
2013-02-14 02:16:00,50.0,20.0,29.76,North,357,0.0,-999.0,31,-99.99,,,0.00,weatherlink.com 1.10,2013-02-14 09:16:00,
2013-02-14 02:31:00,49.9,23.0,29.76,North,359,0.0,-999.0,35,-99.99,,,0.00,weatherlink.com 1.10,2013-02-14 09:31:00,
2013-02-14 02:46:00,49.1,21.0,29.76,North,359,0.0,-999.0,33,-99.99,,,0.00,weatherlink.com 1.10,2013-02-14 09:46:00,
2013-02-14 03:01:00,49.0,21.0,29.75,North,359,0.0,-999.0,33,-99.99,,,0.00,weatherlink.com 1.10,2013-02-14 10:01:00,
2013-02-14 03:16:00,48.5,20.0,29.75,North,359,0.0,-999.0,33,-99.99,,,0.00,weatherlink.com 1.10,2013-02-14 10:16:00,
2013-02-14 03:31:00,47.9,20.0,29.75,North,359,0.0,-999.0,33,-99.99,,,0.00,weatherlink.com 1.10,2013-02-14 10:31:00,
2013-02-14 03:46:00,48.4,20.0,29.75,North,359,0.0,-999.0,32,-99.99,,,0.00,weatherlink.com 1.10,2013-02-14 10:46:00,
2013-02-14 04:01:00,48.2,19.0,29.74,North,359,0.0,-999.0,32,-99.99,,,0.00,weatherlink.com 1.10,2013-02-14 11:01:00,
2013-02-14 04:16:00,47.9,19.0,29.74,North,359,0.0,-999.0,32,-99.99,,,0.00,weatherlink.com 1.10,2013-02-14 11:16:00,
2013-02-14 04:31:00,47.8,19.0,29.74,North,359,0.0,-999.0,32,-99.99,,,0.00,weatherlink.com 1.10,2013-02-14 11:31:00,
2013-02-14 04:46:00,46.8,21.0,29.73,North,359,0.0,-999.0,36,-99.99,,,0.00,weatherlink.com 1.10,2013-02-14 11:46:00,
2013-02-14 05:01:00,46.5,19.0,29.74,North,359,0.0,-999.0,34,-99.99,,,0.00,weatherlink.com 1.10,2013-02-14 12:01:00,
2013-02-14 05:16:00,46.8,20.0,29.74,North,359,0.0,-999.0,34,-99.99,,,0.00,weatherlink.com 1.10,2013-02-14 12:16:00,
2013-02-14 05:31:00,47.1,20.0,29.73,North,359,0.0,-999.0,34,-99.99,,,0.00,weatherlink.com 1.10,2013-02-14 12:31:00,
2013-02-14 05:46:00,46.9,20.0,29.74,North,359,0.0,-999.0,34,-99.99,,,0.00,weatherlink.com 1.10,2013-02-14 12:46:00,
2013-02-14 06:01:00,46.8,22.0,29.74,North,359,0.0,-999.0,38,-99.99,,,0.00,weatherlink.com 1.10,2013-02-14 13:01:00,
2013-02-14 06:16:00,44.7,22.0,29.75,North,359,0.0,-999.0,40,-99.99,,,0.00,weatherlink.com 1.10,2013-02-14 13:16:00,
2013-02-14 06:31:00,44.0,22.0,29.75,North,359,0.0,-999.0,42,-99.99,,,0.00,weatherlink.com 1.10,2013-02-14 13:31:00,
2013-02-14 06:46:00,44.0,25.0,29.75,North,359,0.0,-999.0,47,-99.99,,,0.00,weatherlink.com 1.10,2013-02-14 13:46:00,
2013-02-14 07:01:00,44.0,22.0,29.76,North,359,0.0,-999.0,41,-99.99,,,0.00,weatherlink.com 1.10,2013-02-14 14:01:00,
2013-02-14 07:16:00,44.8,21.0,29.76,North,359,0.0,-999.0,39,-99.99,,,0.00,weatherlink.com 1.10,2013-02-14 14:16:00,
2013-02-14 07:32:00,45.1,22.0,29.76,North,359,0.0,-999.0,40,-99.99,,,0.00,weatherlink.com 1.10,2013-02-14 14:32:00,
2013-02-14 07:47:00,44.4,21.0,29.76,North,359,0.0,-999.0,40,-99.99,,,0.00,weatherlink.com 1.10,2013-02-14 14:47:00,
2013-02-14 08:02:00,44.4,24.0,29.76,North,359,0.0,-999.0,44,-99.99,,,0.00,weatherlink.com 1.10,2013-02-14 15:02:00,
2013-02-14 08:17:00,45.0,21.0,29.77,North,359,0.0,-999.0,39,-99.99,,,0.00,weatherlink.com 1.10,2013-02-14 15:17:00,
2013-02-14 08:32:00,50.0,21.0,29.77,North,357,0.0,-999.0,32,-99.99,,,0.00,weatherlink.com 1.10,2013-02-14 15:32:00,
2013-02-14 08:47:00,52.7,24.0,29.77,North,359,0.0,-999.0,33,-99.99,,,0.00,weatherlink.com 1.10,2013-02-14 15:47:00,
2013-02-14 09:02:00,55.3,28.0,29.77,North,359,0.0,-999.0,35,-99.99,,,0.00,weatherlink.com 1.10,2013-02-14 16:02:00,
2013-02-14 09:17:00,55.8,28.0,29.77,North,357,0.0,-999.0,34,-99.99,,,0.00,weatherlink.com 1.10,2013-02-14 16:17:00,
2013-02-14 09:32:00,56.4,27.0,29.78,North,359,2.0,-999.0,32,-99.99,,,0.00,weatherlink.com 1.10,2013-02-14 16:32:00,
2013-02-14 09:47:00,57.6,27.0,29.79,North,359,2.0,-999.0,31,-99.99,,,0.00,weatherlink.com 1.10,2013-02-14 16:47:00,
2013-02-14 10:02:00,57.8,28.0,29.79,North,359,4.0,-999.0,32,-99.99,,,0.00,weatherlink.com 1.10,2013-02-14 17:02:00,
2013-02-14 10:17:00,58.7,25.0,29.79,North,359,5.0,-999.0,28,-99.99,,,0.00,weatherlink.com 1.10,2013-02-14 17:17:00,
2013-02-14 10:32:00,60.7,26.0,29.79,North,357,2.0,-999.0,27,-99.99,,,0.00,weatherlink.com 1.10,2013-02-14 17:32:00,
2013-02-14 10:47:00,62.5,28.0,29.80,North,359,0.0,-999.0,27,-99.99,,,0.00,weatherlink.com 1.10,2013-02-14 17:47:00,
2013-02-14 11:02:00,62.8,27.0,29.82,North,359,1.0,-999.0,26,-99.99,,,0.00,weatherlink.com 1.10,2013-02-14 18:02:00,
2013-02-14 11:17:00,63.8,26.0,29.84,North,359,4.0,-999.0,24,-99.99,,,0.00,weatherlink.com 1.10,2013-02-14 18:17:00,
2013-02-14 11:32:00,64.0,26.0,29.84,North,359,4.0,-999.0,24,-99.99,,,0.00,weatherlink.com 1.10,2013-02-14 18:32:00,
2013-02-14 12:02:00,66.4,25.0,29.80,North,359,4.0,-999.0,21,-99.99,,,0.00,weatherlink.com 1.10,2013-02-14 19:02:00,
2013-02-14 12:17:00,67.4,24.0,29.78,North,359,2.0,-999.0,19,-99.99,,,0.00,weatherlink.com 1.10,2013-02-14 19:17:00,
2013-02-14 12:32:00,68.3,26.0,29.77,North,359,3.0,-999.0,20,-99.99,,,0.00,weatherlink.com 1.10,2013-02-14 19:32:00,
2013-02-14 12:47:00,69.5,25.0,29.76,North,357,5.0,-999.0,19,-99.99,,,0.00,weatherlink.com 1.10,2013-02-14 19:47:00,
2013-02-14 13:02:00,69.8,26.0,29.76,North,0,9.0,-999.0,19,-99.99,,,0.00,weatherlink.com 1.10,2013-02-14 20:02:00,
2013-02-14 13:17:00,70.1,26.0,29.75,North,359,2.0,-999.0,19,-99.99,,,0.00,weatherlink.com 1.10,2013-02-14 20:17:00,
2013-02-14 13:33:00,71.7,27.0,29.74,North,359,7.0,-999.0,19,-99.99,,,0.00,weatherlink.com 1.10,2013-02-14 20:33:00,
2013-02-14 13:47:00,71.7,26.0,29.73,North,356,4.0,-999.0,18,-99.99,,,0.00,weatherlink.com 1.10,2013-02-14 20:47:00,
2013-02-14 14:02:00,72.0,27.0,29.72,North,359,9.0,-999.0,19,-99.99,,,0.00,weatherlink.com 1.10,2013-02-14 21:02:00,
2013-02-14 14:17:00,72.6,27.0,29.71,North,359,11.0,-999.0,18,-99.99,,,0.00,weatherlink.com 1.10,2013-02-14 21:17:00,
2013-02-14 14:32:00,73.1,26.0,29.70,North,357,10.0,-999.0,17,-99.99,,,0.00,weatherlink.com 1.10,2013-02-14 21:32:00,
2013-02-14 14:47:00,73.3,26.0,29.70,North,357,12.0,-999.0,17,-99.99,,,0.00,weatherlink.com 1.10,2013-02-14 21:47:00,
2013-02-14 15:02:00,72.9,25.0,29.69,North,357,6.0,-999.0,17,-99.99,,,0.00,weatherlink.com 1.10,2013-02-14 22:02:00,
2013-02-14 15:17:00,73.1,26.0,29.69,North,359,13.0,-999.0,17,-99.99,,,0.00,weatherlink.com 1.10,2013-02-14 22:17:00,
2013-02-14 15:32:00,73.6,25.0,29.68,North,359,14.0,-999.0,16,-99.99,,,0.00,weatherlink.com 1.10,2013-02-14 22:32:00,
2013-02-14 15:47:00,74.0,25.0,29.68,North,359,10.0,-999.0,16,-99.99,,,0.00,weatherlink.com 1.10,2013-02-14 22:47:00,
2013-02-14 16:02:00,74.0,25.0,29.68,North,359,13.0,-999.0,16,-99.99,,,0.00,weatherlink.com 1.10,2013-02-14 23:02:00,
2013-02-14 16:17:00,73.4,24.0,29.68,North,0,14.0,-999.0,16,-99.99,,,0.00,weatherlink.com 1.10,2013-02-14 23:17:00,
2013-02-14 16:33:00,72.7,25.0,29.68,North,359,12.0,-999.0,17,-99.99,,,0.00,weatherlink.com 1.10,2013-02-14 23:33:00,
2013-02-14 16:48:00,72.6,24.0,29.68,North,359,11.0,-999.0,16,-99.99,,,0.00,weatherlink.com 1.10,2013-02-14 23:48:00,
2013-02-14 17:03:00,72.0,25.0,29.67,NW,315,14.0,-999.0,17,-99.99,,,0.00,weatherlink.com 1.10,2013-02-15 00:03:00,
2013-02-14 17:18:00,71.7,25.0,29.67,North,359,6.0,-999.0,17,-99.99,,,0.00,weatherlink.com 1.10,2013-02-15 00:18:00,
2013-02-14 17:33:00,71.0,24.0,29.66,North,359,7.0,-999.0,17,-99.99,,,0.00,weatherlink.com 1.10,2013-02-15 00:33:00,
2013-02-14 17:48:00,70.1,25.0,29.66,North,359,3.0,-999.0,18,-99.99,,,0.00,weatherlink.com 1.10,2013-02-15 00:48:00,
2013-02-14 18:03:00,69.1,25.0,29.66,North,359,6.0,-999.0,19,-99.99,,,0.00,weatherlink.com 1.10,2013-02-15 01:03:00,
2013-02-14 18:18:00,67.8,26.0,29.66,North,359,0.0,-999.0,21,-99.99,,,0.00,weatherlink.com 1.10,2013-02-15 01:18:00,
2013-02-14 18:33:00,66.3,27.0,29.67,North,359,0.0,-999.0,23,-99.99,,,0.00,weatherlink.com 1.10,2013-02-15 01:33:00,
2013-02-14 18:48:00,65.3,26.0,29.68,North,359,0.0,-999.0,23,-99.99,,,0.00,weatherlink.com 1.10,2013-02-15 01:48:00,
2013-02-14 19:03:00,64.4,27.0,29.69,North,357,0.0,-999.0,24,-99.99,,,0.00,weatherlink.com 1.10,2013-02-15 02:03:00,
2013-02-14 19:18:00,64.3,23.0,29.69,North,359,4.0,-999.0,21,-99.99,,,0.00,weatherlink.com 1.10,2013-02-15 02:18:00,
2013-02-14 19:33:00,65.9,24.0,29.70,North,359,4.0,-999.0,20,-99.99,,,0.00,weatherlink.com 1.10,2013-02-15 02:33:00,
2013-02-14 19:48:00,65.4,25.0,29.70,North,359,1.0,-999.0,22,-99.99,,,0.00,weatherlink.com 1.10,2013-02-15 02:48:00,
2013-02-14 20:03:00,65.4,24.0,29.70,SSE,151,2.0,-999.0,21,-99.99,,,0.00,weatherlink.com 1.10,2013-02-15 03:03:00,
2013-02-14 20:18:00,64.8,25.0,29.71,North,354,2.0,-999.0,22,-99.99,,,0.00,weatherlink.com 1.10,2013-02-15 03:18:00,
2013-02-14 20:33:00,65.1,25.0,29.71,West,278,0.0,-999.0,22,-99.99,,,0.00,weatherlink.com 1.10,2013-02-15 03:33:00,
2013-02-14 20:48:00,64.6,25.0,29.71,North,357,2.0,-999.0,22,-99.99,,,0.00,weatherlink.com 1.10,2013-02-15 03:48:00,
2013-02-14 21:03:00,64.4,25.0,29.72,NW,313,0.0,-999.0,22,-99.99,,,0.00,weatherlink.com 1.10,2013-02-15 04:03:00,
2013-02-14 21:18:00,63.2,26.0,29.73,NNW,339,0.0,-999.0,24,-99.99,,,0.00,weatherlink.com 1.10,2013-02-15 04:18:00,
2013-02-14 21:33:00,60.9,26.0,29.74,SSW,203,2.0,-999.0,26,-99.99,,,0.00,weatherlink.com 1.10,2013-02-15 04:33:00,
2013-02-14 21:48:00,61.1,25.0,29.74,NW,323,0.0,-999.0,25,-99.99,,,0.00,weatherlink.com 1.10,2013-02-15 04:48:00,
2013-02-14 22:03:00,60.6,25.0,29.74,North,359,0.0,-999.0,26,-99.99,,,0.00,weatherlink.com 1.10,2013-02-15 05:03:00,
2013-02-14 22:18:00,60.1,24.0,29.74,North,359,0.0,-999.0,25,-99.99,,,0.00,weatherlink.com 1.10,2013-02-15 05:18:00,
2013-02-14 22:33:00,60.1,24.0,29.74,North,359,5.0,-999.0,25,-99.99,,,0.00,weatherlink.com 1.10,2013-02-15 05:33:00,
2013-02-14 22:48:00,63.5,24.0,29.74,North,359,6.0,-999.0,22,-99.99,,,0.00,weatherlink.com 1.10,2013-02-15 05:48:00,
2013-02-14 23:03:00,63.8,23.0,29.74,North,359,7.0,-999.0,21,-99.99,,,0.00,weatherlink.com 1.10,2013-02-15 06:03:00,
2013-02-14 23:18:00,64.0,23.0,29.75,North,359,8.0,-999.0,21,-99.99,,,0.00,weatherlink.com 1.10,2013-02-15 06:18:00,
2013-02-14 23:33:00,64.0,23.0,29.75,NNW,337,7.0,-999.0,21,-99.99,,,0.00,weatherlink.com 1.10,2013-02-15 06:33:00,
2013-02-14 23:48:00,64.0,24.0,29.75,North,359,7.0,-999.0,22,-99.99,,,0.00,weatherlink.com 1.10,2013-02-15 06:48:00,